createdAt,value
2022-11-30T00:03:12.215Z,6.43
2022-11-30T00:08:13.858Z,6.48
2022-11-30T00:13:15.257Z,6.48
2022-11-30T00:18:17.740Z,6.43
2022-11-30T00:23:19.107Z,6.38
2022-11-30T00:28:20.471Z,6.38
2022-11-30T00:33:21.840Z,6.37
2022-11-30T00:38:23.448Z,6.32
2022-11-30T00:43:24.823Z,6.25
2022-11-30T00:48:26.464Z,6.18
2022-11-30T00:53:27.872Z,6.11
2022-11-30T00:58:29.281Z,6.11
2022-11-30T01:03:30.761Z,6.11
2022-11-30T01:08:33.125Z,6.09
2022-11-30T01:13:34.770Z,6.07
2022-11-30T01:18:37.978Z,6.08
2022-11-30T01:23:40.491Z,6.06
2022-11-30T01:28:43.991Z,6.03
2022-11-30T01:33:52.763Z,6.05
2022-11-30T01:38:57.036Z,6.08
2022-11-30T01:44:20.245Z,6.08
2022-11-30T01:49:29.747Z,6.09
2022-11-30T01:54:41.199Z,6.12
2022-11-30T01:59:42.694Z,6.07
2022-11-30T02:04:44.438Z,6.01
2022-11-30T02:09:45.998Z,5.96
2022-11-30T02:14:54.147Z,5.96
2022-11-30T02:20:21.896Z,5.94
2022-11-30T02:25:48.347Z,5.85
2022-11-30T02:30:53.810Z,5.81
2022-11-30T02:35:57.027Z,5.87
2022-11-30T02:40:58.391Z,5.91
2022-11-30T02:46:11.861Z,5.94
2022-11-30T02:51:17.910Z,5.90
2022-11-30T02:56:20.545Z,5.80
2022-11-30T03:01:22.173Z,5.70
2022-11-30T03:06:23.594Z,5.65
2022-11-30T03:11:25.690Z,5.64
2022-11-30T03:16:27.054Z,5.62
2022-11-30T03:21:28.783Z,5.57
2022-11-30T03:26:30.330Z,5.53
2022-11-30T03:31:31.747Z,5.50
2022-11-30T03:36:33.169Z,5.47
2022-11-30T03:41:34.524Z,5.44
2022-11-30T03:46:35.974Z,5.37
2022-11-30T03:51:37.551Z,5.30
2022-11-30T03:56:38.944Z,5.28
2022-11-30T04:01:41.087Z,5.27
2022-11-30T04:06:42.567Z,5.32
2022-11-30T04:11:43.975Z,5.37
2022-11-30T04:16:45.347Z,5.39
2022-11-30T04:21:46.735Z,5.40
2022-11-30T04:26:48.130Z,5.39
2022-11-30T04:31:49.502Z,5.32
2022-11-30T04:36:51.673Z,5.22
2022-11-30T04:41:55.263Z,5.14
2022-11-30T04:46:56.698Z,5.07
2022-11-30T04:51:58.086Z,4.98
2022-11-30T04:56:59.851Z,4.89
2022-11-30T05:02:01.259Z,4.83
2022-11-30T05:07:02.695Z,4.79
2022-11-30T05:12:04.235Z,4.73
2022-11-30T05:17:05.637Z,4.67
2022-11-30T05:22:07.035Z,4.65
2022-11-30T05:27:14.361Z,4.61
2022-11-30T05:32:18.302Z,4.59
2022-11-30T05:37:19.742Z,4.56
2022-11-30T05:42:21.674Z,4.51
2022-11-30T05:47:23.078Z,4.49
2022-11-30T05:52:24.511Z,4.47
2022-11-30T05:57:25.932Z,4.37
2022-11-30T06:02:28.444Z,4.28
2022-11-30T06:07:30.159Z,4.14
2022-11-30T06:12:31.623Z,4.03
2022-11-30T06:17:33.032Z,3.92
2022-11-30T06:22:34.635Z,3.87
2022-11-30T06:27:35.997Z,3.83
2022-11-30T06:32:37.481Z,3.84
2022-11-30T06:37:38.991Z,3.89
2022-11-30T06:42:40.613Z,3.84
2022-11-30T06:47:42.132Z,3.79
2022-11-30T06:52:43.491Z,3.81
2022-11-30T06:57:47.583Z,3.83
2022-11-30T07:02:49.080Z,3.86
2022-11-30T07:07:50.891Z,3.88
2022-11-30T07:12:52.385Z,3.83
2022-11-30T07:17:53.896Z,3.76
2022-11-30T07:22:55.919Z,3.78
2022-11-30T07:28:01.145Z,3.91
2022-11-30T07:33:02.728Z,3.97
2022-11-30T07:43:25.352Z,4.25
2022-11-30T07:49:00.843Z,4.41
2022-11-30T07:54:02.891Z,4.56
2022-11-30T07:59:04.652Z,4.71
2022-11-30T08:04:51.323Z,4.88
2022-11-30T08:09:54.477Z,5.07
2022-11-30T08:15:18.657Z,5.20
2022-11-30T08:20:17.320Z,5.33
2022-11-30T08:25:18.767Z,5.47
2022-11-30T08:30:20.187Z,5.64
2022-11-30T08:35:21.602Z,5.78
2022-11-30T08:40:23.005Z,5.91
2022-11-30T08:45:24.434Z,5.97
2022-11-30T08:50:25.807Z,5.94
2022-11-30T08:55:27.179Z,5.89
2022-11-30T09:00:28.608Z,5.78
2022-11-30T09:05:30.006Z,5.73
2022-11-30T09:10:31.402Z,5.73
2022-11-30T09:15:33.349Z,5.70
2022-11-30T09:20:35.886Z,5.69
2022-11-30T09:25:37.542Z,5.68
2022-11-30T09:30:38.965Z,5.69
2022-11-30T09:35:40.524Z,5.71
2022-11-30T09:40:42.470Z,5.72
2022-11-30T09:45:53.375Z,5.78
2022-11-30T09:50:56.076Z,5.83
2022-11-30T09:55:59.885Z,5.86
2022-11-30T10:01:06.677Z,5.94
2022-11-30T10:06:15.837Z,5.99
2022-11-30T10:11:48.142Z,6.11
2022-11-30T10:17:07.016Z,6.22
2022-11-30T10:22:14.659Z,6.27
2022-11-30T10:27:40.932Z,6.30
2022-11-30T10:32:45.410Z,6.37
2022-11-30T10:37:48.567Z,6.45
2022-11-30T10:42:59.152Z,6.55
2022-11-30T10:48:13.950Z,6.58
2022-11-30T10:53:15.509Z,6.59
2022-11-30T10:58:31.402Z,6.61
2022-11-30T11:03:33.827Z,6.65
2022-11-30T11:08:35.438Z,6.65
2022-11-30T11:13:38.637Z,6.67
2022-11-30T11:18:57.583Z,6.69
2022-11-30T11:23:59.049Z,6.78
2022-11-30T11:29:00.574Z,6.87
2022-11-30T11:34:02.078Z,6.93
2022-11-30T11:39:23.508Z,6.98
2022-11-30T11:44:27.848Z,7.08
2022-11-30T11:49:31.525Z,7.14
2022-11-30T11:54:47.156Z,7.23
2022-11-30T12:00:05.389Z,7.26
2022-11-30T12:05:15.978Z,7.20
2022-11-30T12:10:50.819Z,7.14
2022-11-30T12:15:57.965Z,7.05
2022-11-30T12:21:22.444Z,6.90
2022-11-30T12:26:53.453Z,6.78
2022-11-30T12:32:19.815Z,6.70
2022-11-30T12:37:48.459Z,6.62
2022-11-30T12:43:01.464Z,6.52
2022-11-30T12:48:26.603Z,6.46
2022-11-30T12:53:43.003Z,6.44
2022-11-30T12:58:51.097Z,6.45
2022-11-30T13:04:08.841Z,6.44
2022-11-30T13:09:41.435Z,6.42
2022-11-30T13:14:43.346Z,6.40
2022-11-30T13:20:00.074Z,6.41
2022-11-30T13:25:16.555Z,6.42
2022-11-30T13:30:41.399Z,6.42
2022-11-30T13:35:53.557Z,6.53
2022-11-30T13:41:01.060Z,6.53
2022-11-30T13:46:13.339Z,6.46
2022-11-30T13:51:35.165Z,6.36
2022-11-30T13:56:36.903Z,6.25
2022-11-30T14:01:38.427Z,6.16
2022-11-30T14:06:42.678Z,6.08
2022-11-30T14:11:45.250Z,6.02
2022-11-30T14:16:46.790Z,5.91
2022-11-30T14:21:48.949Z,5.79
2022-11-30T14:26:51.716Z,5.69
2022-11-30T14:32:15.751Z,5.61
2022-11-30T14:37:33.038Z,5.51
2022-11-30T14:42:36.553Z,5.52
2022-11-30T14:47:38.048Z,5.59
2022-11-30T14:53:21.265Z,5.68
2022-11-30T14:58:43.899Z,5.69
2022-11-30T15:03:47.435Z,5.71
2022-11-30T15:08:53.258Z,5.73
2022-11-30T15:14:08.275Z,5.77
2022-11-30T15:19:22.392Z,5.84
2022-11-30T15:24:25.476Z,5.87
2022-11-30T15:29:43.578Z,5.90
2022-11-30T15:34:54.955Z,5.93
2022-11-30T15:40:00.898Z,5.97
2022-11-30T15:45:36.117Z,6.00
2022-11-30T15:50:39.358Z,5.96
2022-11-30T15:55:47.597Z,5.95
2022-11-30T16:01:24.634Z,5.98
2022-11-30T16:06:35.289Z,5.98
2022-11-30T16:11:36.928Z,6.00
2022-11-30T16:16:38.429Z,6.01
2022-11-30T16:21:40.358Z,6.01
2022-11-30T16:26:51.755Z,5.97
2022-11-30T16:31:53.766Z,5.96
2022-11-30T16:36:55.287Z,5.97
2022-11-30T16:41:56.798Z,5.98
2022-11-30T16:46:58.271Z,5.95
2022-11-30T16:51:59.728Z,5.95
2022-11-30T16:57:01.422Z,5.97
2022-11-30T17:02:04.977Z,6.01
2022-11-30T17:07:06.794Z,6.03
2022-11-30T17:12:09.263Z,6.04
2022-11-30T17:17:10.762Z,6.00
2022-11-30T17:22:12.173Z,5.98
2022-11-30T17:27:13.543Z,5.99
2022-11-30T17:32:14.996Z,6.00
2022-11-30T17:37:16.498Z,6.00
2022-11-30T17:42:18.035Z,6.03
2022-11-30T17:47:19.463Z,6.06
2022-11-30T17:52:20.903Z,6.10
2022-11-30T17:57:47.799Z,6.12
2022-11-30T18:02:53.307Z,6.14
2022-11-30T18:07:54.935Z,6.15
2022-11-30T18:12:56.324Z,6.18
2022-11-30T18:18:01.186Z,6.16
2022-11-30T18:23:02.607Z,6.19
2022-11-30T18:28:06.540Z,6.23
2022-11-30T18:33:08.405Z,6.20
2022-11-30T18:38:09.776Z,6.17
2022-11-30T18:43:11.236Z,6.14
2022-11-30T18:48:12.675Z,6.17
2022-11-30T18:53:18.261Z,6.20
2022-11-30T18:58:20.044Z,6.23
2022-11-30T19:03:21.419Z,6.25
2022-11-30T19:08:23.304Z,6.28
2022-11-30T19:13:24.999Z,6.27
2022-11-30T19:18:26.510Z,6.28
2022-11-30T19:23:28.418Z,6.28
2022-11-30T19:28:31.091Z,6.26
2022-11-30T19:33:35.686Z,6.22
2022-11-30T19:38:37.148Z,6.18
2022-11-30T19:43:39.128Z,6.17
2022-11-30T19:48:41.823Z,6.16
2022-11-30T19:53:44.565Z,6.12
2022-11-30T19:58:46.445Z,6.07
2022-11-30T20:03:48.160Z,6.04
2022-11-30T20:08:49.573Z,5.98
2022-11-30T20:13:51.436Z,5.93
2022-11-30T20:18:57.602Z,5.91
2022-11-30T20:24:01.016Z,5.85
2022-11-30T20:29:04.496Z,5.82
2022-11-30T20:34:07.971Z,5.81
2022-11-30T20:39:10.663Z,5.75
2022-11-30T20:44:14.823Z,5.70
2022-11-30T20:49:18.348Z,5.64
2022-11-30T20:54:19.893Z,5.60
2022-11-30T20:59:23.477Z,5.53
2022-11-30T21:04:28.325Z,5.48
2022-11-30T21:09:29.721Z,5.42
2022-11-30T21:14:31.130Z,5.35
2022-11-30T21:19:33.582Z,5.32
2022-11-30T21:24:35.098Z,5.28
2022-11-30T21:29:36.622Z,5.29
2022-11-30T21:34:38.089Z,5.24
2022-11-30T21:39:40.894Z,5.13
2022-11-30T21:44:42.393Z,5.02
2022-11-30T21:49:43.852Z,4.96
2022-11-30T21:54:45.349Z,4.94
2022-11-30T21:59:47.043Z,4.86
2022-11-30T22:04:48.710Z,4.81
2022-11-30T22:09:50.391Z,4.77
2022-11-30T22:14:51.946Z,4.73
2022-11-30T22:19:53.310Z,4.70
2022-11-30T22:24:55.605Z,4.68
2022-11-30T22:29:56.962Z,4.65
2022-11-30T22:34:58.319Z,4.65
2022-11-30T22:39:59.814Z,4.62
2022-11-30T22:45:01.166Z,4.57
2022-11-30T22:50:02.658Z,4.55
2022-11-30T22:55:04.310Z,4.50
2022-11-30T23:00:06.759Z,4.47
2022-11-30T23:05:08.309Z,4.43
2022-11-30T23:10:09.742Z,4.45
2022-11-30T23:15:11.455Z,4.46
2022-11-30T23:20:13.279Z,4.43
2022-11-30T23:25:16.669Z,4.40
2022-11-30T23:30:18.154Z,4.35
2022-11-30T23:35:19.599Z,4.32
2022-11-30T23:40:21.120Z,4.28
2022-11-30T23:45:22.508Z,4.23
2022-11-30T23:50:23.870Z,4.18
2022-11-30T23:55:25.284Z,4.12
